createdAt,value
2022-11-12T00:00:07.026Z,14.40
2022-11-12T00:05:10.377Z,12.25
2022-11-12T00:10:12.593Z,13.27
2022-11-12T00:15:15.122Z,12.52
2022-11-12T00:20:17.513Z,15.65
2022-11-12T00:25:19.877Z,12.57
2022-11-12T00:30:22.028Z,11.65
2022-11-12T00:35:24.272Z,12.88
2022-11-12T00:40:26.973Z,14.88
2022-11-12T00:45:29.212Z,11.73
2022-11-12T00:50:31.382Z,11.15
2022-11-12T00:55:33.706Z,12.48
2022-11-12T01:00:35.974Z,12.68
2022-11-12T01:05:38.210Z,17.15
2022-11-12T01:10:40.543Z,10.23
2022-11-12T01:15:43.580Z,11.32
2022-11-12T01:20:45.967Z,10.48
2022-11-12T01:25:48.380Z,13.20
2022-11-12T01:30:50.745Z,9.85
2022-11-12T01:35:52.923Z,12.00
2022-11-12T01:40:55.109Z,10.85
2022-11-12T01:45:57.995Z,11.90
2022-11-12T01:51:00.854Z,9.20
2022-11-12T01:56:05.957Z,10.05
2022-11-12T02:01:08.345Z,11.32
2022-11-12T02:06:14.700Z,12.20
2022-11-12T02:11:21.725Z,11.45
2022-11-12T02:16:29.629Z,10.95
2022-11-12T02:21:32.469Z,10.85
2022-11-12T02:26:37.716Z,11.55
2022-11-12T02:31:39.965Z,12.60
2022-11-12T02:36:42.297Z,11.30
2022-11-12T02:41:44.459Z,10.50
2022-11-12T02:46:46.642Z,13.98
2022-11-12T02:51:48.953Z,14.57
2022-11-12T02:56:51.140Z,12.02
2022-11-12T03:01:53.527Z,10.70
2022-11-12T03:06:55.736Z,8.07
2022-11-12T03:11:58.024Z,11.40
2022-11-12T03:17:00.344Z,9.05
2022-11-12T03:22:02.781Z,4.15
2022-11-12T03:27:04.976Z,4.22
2022-11-12T03:32:07.331Z,2.38
2022-11-12T03:37:09.977Z,2.20
2022-11-12T03:42:12.300Z,3.78
2022-11-12T03:47:14.509Z,4.47
2022-11-12T03:52:16.701Z,6.93
2022-11-12T03:57:19.029Z,3.72
2022-11-12T04:02:21.263Z,3.45
2022-11-12T04:07:41.788Z,3.65
2022-11-12T04:13:02.333Z,3.88
2022-11-12T04:18:23.102Z,2.90
2022-11-12T04:23:25.373Z,2.78
2022-11-12T04:28:27.870Z,3.10
2022-11-12T04:33:30.241Z,2.25
2022-11-12T04:38:32.421Z,3.67
2022-11-12T04:43:52.873Z,3.47
2022-11-12T04:48:55.024Z,2.28
2022-11-12T04:53:57.205Z,3.33
2022-11-12T04:58:59.551Z,4.30
2022-11-12T05:04:01.890Z,2.42
2022-11-12T05:09:04.172Z,4.60
2022-11-12T05:14:06.503Z,3.40
2022-11-12T05:37:22.533Z,4.40
2022-11-12T05:42:24.716Z,5.55
2022-11-12T05:47:27.039Z,8.65
2022-11-12T05:52:29.443Z,15.35
2022-11-12T05:57:31.634Z,11.85
2022-11-12T06:02:33.865Z,11.40
2022-11-12T06:07:36.086Z,11.20
2022-11-12T06:12:38.392Z,15.52
2022-11-12T06:17:40.581Z,15.85
2022-11-12T06:22:42.931Z,13.38
2022-11-12T06:27:45.257Z,14.27
2022-11-12T06:32:50.970Z,16.40
2022-11-12T06:37:53.364Z,19.20
2022-11-12T06:42:59.606Z,15.82
2022-11-12T06:48:01.836Z,31.30
2022-11-12T06:53:04.276Z,27.67
2022-11-12T06:58:06.544Z,21.48
2022-11-12T07:03:10.027Z,23.70
2022-11-12T07:08:12.234Z,21.05
2022-11-12T07:13:14.664Z,24.70
2022-11-12T07:18:17.011Z,21.58
2022-11-12T07:23:19.411Z,21.17
2022-11-12T07:28:21.777Z,24.92
2022-11-12T07:33:24.568Z,25.45
2022-11-12T07:38:28.128Z,23.35
2022-11-12T07:43:32.678Z,25.08
2022-11-12T07:48:35.337Z,23.08
2022-11-12T07:53:37.895Z,25.08
2022-11-12T07:58:40.718Z,21.40
2022-11-12T08:03:42.926Z,19.98
2022-11-12T08:08:45.653Z,22.15
2022-11-12T08:13:48.608Z,22.02
2022-11-12T08:18:50.991Z,20.55
2022-11-12T08:23:53.399Z,19.88
2022-11-12T08:28:55.612Z,17.73
2022-11-12T08:33:57.837Z,16.67
2022-11-12T08:39:00.170Z,17.77
2022-11-12T08:44:08.150Z,18.42
2022-11-12T08:49:10.747Z,19.25
2022-11-12T08:54:12.939Z,13.98
2022-11-12T08:59:15.185Z,18.02
2022-11-12T09:04:18.682Z,16.90
2022-11-12T09:09:21.094Z,13.23
2022-11-12T09:14:23.322Z,14.05
2022-11-12T09:19:25.539Z,11.82
2022-11-12T09:24:27.934Z,6.53
2022-11-12T09:29:30.145Z,6.40
2022-11-12T09:34:32.506Z,3.78
2022-11-12T09:39:34.687Z,6.20
2022-11-12T09:44:39.775Z,5.95
2022-11-12T09:49:50.578Z,7.72
2022-11-12T09:55:00.796Z,6.05
2022-11-12T10:00:04.015Z,8.90
2022-11-12T10:05:27.890Z,6.10
2022-11-12T10:10:49.490Z,4.82
2022-11-12T10:16:29.201Z,7.82
2022-11-12T10:21:36.627Z,10.50
2022-11-12T10:26:40.781Z,9.02
2022-11-12T10:31:43.117Z,10.98
2022-11-12T10:37:02.136Z,9.55
2022-11-12T10:42:13.369Z,4.75
2022-11-12T10:47:18.435Z,10.48
2022-11-12T10:52:25.361Z,5.55
2022-11-12T10:57:28.084Z,23.40
2022-11-12T11:02:30.504Z,7.43
2022-11-12T11:07:32.731Z,6.40
2022-11-12T11:12:35.351Z,9.15
2022-11-12T11:17:37.659Z,5.68
2022-11-12T11:22:44.906Z,7.32
2022-11-12T11:28:14.077Z,11.20
2022-11-12T11:33:25.078Z,6.25
2022-11-12T11:38:42.233Z,9.43
2022-11-12T11:43:50.478Z,10.60
2022-11-12T11:49:11.219Z,45.28
2022-11-12T11:54:44.906Z,23.80
2022-11-12T12:00:16.463Z,15.43
2022-11-12T12:05:46.656Z,9.50
2022-11-12T12:11:07.354Z,11.65
2022-11-12T12:16:23.871Z,11.88
2022-11-12T12:21:32.504Z,8.13
2022-11-12T12:26:48.607Z,20.02
2022-11-12T12:32:23.106Z,7.32
2022-11-12T12:37:57.786Z,5.85
2022-11-12T12:43:23.716Z,3.13
2022-11-12T12:48:31.586Z,6.68
2022-11-12T12:53:36.139Z,7.38
2022-11-12T12:58:41.086Z,19.15
2022-11-12T13:03:43.435Z,12.43
2022-11-12T13:08:45.850Z,9.73
2022-11-12T13:13:48.150Z,8.00
2022-11-12T13:18:53.034Z,12.98
2022-11-12T13:24:10.833Z,11.35
2022-11-12T13:29:24.982Z,10.00
2022-11-12T13:34:34.121Z,7.65
2022-11-12T13:39:36.874Z,7.23
2022-11-12T13:44:39.251Z,8.05
2022-11-12T13:49:43.649Z,7.10
2022-11-12T13:54:45.986Z,5.35
2022-11-12T13:59:48.306Z,6.93
2022-11-12T14:04:51.968Z,5.78
2022-11-12T14:10:19.879Z,4.90
2022-11-12T14:15:51.329Z,9.63
2022-11-12T14:20:53.700Z,10.05
2022-11-12T14:25:57.668Z,6.93
2022-11-12T14:31:02.092Z,8.70
2022-11-12T14:36:07.618Z,9.13
2022-11-12T14:41:16.053Z,4.85
2022-11-12T14:46:27.555Z,7.93
2022-11-12T14:51:32.502Z,7.35
2022-11-12T14:56:42.627Z,6.53
2022-11-12T15:02:29.499Z,5.13
2022-11-12T15:07:40.371Z,5.40
2022-11-12T15:12:42.984Z,5.65
2022-11-12T15:17:45.443Z,9.00
2022-11-12T15:22:54.301Z,10.25
2022-11-12T15:27:57.219Z,9.93
2022-11-12T15:33:14.453Z,7.25
2022-11-12T15:38:33.310Z,13.90
2022-11-12T15:43:37.224Z,13.75
2022-11-12T15:48:39.412Z,13.38
2022-11-12T15:53:41.649Z,31.65
2022-11-12T15:58:44.006Z,15.43
2022-11-12T16:03:46.586Z,16.17
2022-11-12T16:08:48.922Z,8.85
2022-11-12T16:13:51.221Z,9.32
2022-11-12T16:18:53.546Z,9.80
2022-11-12T16:23:55.839Z,20.20
2022-11-12T16:28:58.221Z,12.13
2022-11-12T16:34:00.554Z,10.75
2022-11-12T16:39:02.935Z,10.60
2022-11-12T16:44:05.281Z,12.23
2022-11-12T16:49:12.769Z,16.38
2022-11-12T16:54:14.961Z,16.48
2022-11-12T16:59:17.336Z,16.17
2022-11-12T17:04:19.835Z,16.48
2022-11-12T17:09:22.207Z,21.50
2022-11-12T17:14:28.313Z,20.17
2022-11-12T17:19:30.939Z,18.80
2022-11-12T17:24:33.314Z,15.40
2022-11-12T17:29:35.637Z,27.75
2022-11-12T17:34:39.914Z,19.92
2022-11-12T17:39:42.146Z,17.38
2022-11-12T17:44:46.533Z,23.88
2022-11-12T17:49:48.899Z,23.95
2022-11-12T17:54:51.265Z,17.55
2022-11-12T17:59:53.498Z,22.27
2022-11-12T18:04:55.743Z,17.60
2022-11-12T18:09:58.034Z,13.40
2022-11-12T18:15:00.302Z,13.20
2022-11-12T18:20:03.150Z,9.32
2022-11-12T18:25:05.963Z,13.48
2022-11-12T18:30:08.731Z,14.18
2022-11-12T18:35:11.220Z,21.30
2022-11-12T18:40:13.647Z,27.05
2022-11-12T18:45:16.092Z,60.97
2022-11-12T18:50:18.793Z,14.98
2022-11-12T18:55:21.643Z,12.10
2022-11-12T19:00:23.854Z,16.23
2022-11-12T19:05:26.401Z,19.65
2022-11-12T19:10:28.624Z,17.08
2022-11-12T19:15:34.376Z,29.20
2022-11-12T19:20:36.716Z,23.55
2022-11-12T19:25:39.149Z,26.20
2022-11-12T19:30:41.756Z,16.02
2022-11-12T19:35:44.363Z,22.25
2022-11-12T19:40:46.759Z,23.05
2022-11-12T19:45:49.080Z,17.90
2022-11-12T19:50:51.551Z,33.92
2022-11-12T19:55:54.110Z,47.15
2022-11-12T20:01:04.505Z,46.88
2022-11-12T20:06:09.965Z,37.63
2022-11-12T20:11:12.862Z,34.55
2022-11-12T20:16:20.970Z,16.80
2022-11-12T20:21:28.232Z,19.08
2022-11-12T20:26:30.538Z,17.52
2022-11-12T20:31:33.858Z,16.77
2022-11-12T20:36:36.308Z,18.98
2022-11-12T20:41:38.641Z,15.85
2022-11-12T20:46:41.048Z,16.33
2022-11-12T20:51:43.516Z,12.50
2022-11-12T20:56:46.405Z,12.25
2022-11-12T21:01:48.855Z,14.32
2022-11-12T21:06:51.360Z,11.77
2022-11-12T21:11:53.896Z,13.40
2022-11-12T21:16:56.264Z,12.55
2022-11-12T21:21:58.609Z,13.93
2022-11-12T21:27:01.253Z,10.63
2022-11-12T21:32:04.173Z,12.55
2022-11-12T21:37:06.451Z,15.50
2022-11-12T21:42:08.797Z,12.85
2022-11-12T21:47:11.292Z,14.93
2022-11-12T21:52:13.542Z,12.73
2022-11-12T21:57:18.716Z,14.25
2022-11-12T22:02:21.288Z,14.00
2022-11-12T22:07:23.607Z,15.32
2022-11-12T22:12:25.902Z,22.83
2022-11-12T22:17:28.261Z,24.92
2022-11-12T22:22:30.431Z,17.50
2022-11-12T22:27:34.193Z,11.90
2022-11-12T22:32:36.378Z,9.10
2022-11-12T22:37:38.574Z,11.20
2022-11-12T22:42:40.742Z,10.82
2022-11-12T22:47:42.917Z,10.25
2022-11-12T22:52:50.006Z,15.00
2022-11-12T22:57:52.458Z,16.38
2022-11-12T23:02:54.705Z,18.45
2022-11-12T23:07:56.910Z,14.50
2022-11-12T23:12:59.099Z,15.05
2022-11-12T23:18:01.272Z,16.02
2022-11-12T23:23:03.544Z,13.98
2022-11-12T23:28:08.244Z,11.98
2022-11-12T23:33:10.746Z,16.05
2022-11-12T23:38:13.142Z,18.13
2022-11-12T23:43:15.463Z,16.23
2022-11-12T23:48:18.668Z,15.73
2022-11-12T23:53:20.991Z,16.58
2022-11-12T23:58:23.311Z,14.38
